sensor_id;sensor_type;location;lat;lon;timestamp;temperature;humidity
71047;SHT31;58703;48.978;8.982;2023-02-28T00:01:19;-1.25;75.76
71047;SHT31;58703;48.978;8.982;2023-02-28T00:03:44;-1.12;75.56
71047;SHT31;58703;48.978;8.982;2023-02-28T00:06:10;-1.09;75.39
71047;SHT31;58703;48.978;8.982;2023-02-28T00:08:36;-1.15;75.75
71047;SHT31;58703;48.978;8.982;2023-02-28T00:11:03;-1.17;75.75
71047;SHT31;58703;48.978;8.982;2023-02-28T00:13:29;-1.20;75.83
71047;SHT31;58703;48.978;8.982;2023-02-28T00:16:02;-1.10;75.13
71047;SHT31;58703;48.978;8.982;2023-02-28T00:18:28;-1.16;75.64
71047;SHT31;58703;48.978;8.982;2023-02-28T00:20:54;-1.03;75.17
71047;SHT31;58703;48.978;8.982;2023-02-28T00:23:19;-1.10;75.35
71047;SHT31;58703;48.978;8.982;2023-02-28T00:25:45;-1.29;75.90
71047;SHT31;58703;48.978;8.982;2023-02-28T00:28:10;-1.20;75.92
71047;SHT31;58703;48.978;8.982;2023-02-28T00:30:36;-1.23;75.97
71047;SHT31;58703;48.978;8.982;2023-02-28T00:33:01;-1.32;75.99
71047;SHT31;58703;48.978;8.982;2023-02-28T00:35:26;-1.35;76.23
71047;SHT31;58703;48.978;8.982;2023-02-28T00:37:52;-1.36;76.30
71047;SHT31;58703;48.978;8.982;2023-02-28T00:40:18;-1.30;75.95
71047;SHT31;58703;48.978;8.982;2023-02-28T00:42:43;-1.46;76.49
71047;SHT31;58703;48.978;8.982;2023-02-28T00:45:09;-1.25;75.65
71047;SHT31;58703;48.978;8.982;2023-02-28T00:47:34;-1.27;75.93
71047;SHT31;58703;48.978;8.982;2023-02-28T00:50:00;-1.43;76.37
71047;SHT31;58703;48.978;8.982;2023-02-28T00:52:26;-1.48;76.78
71047;SHT31;58703;48.978;8.982;2023-02-28T00:54:51;-1.39;76.39
71047;SHT31;58703;48.978;8.982;2023-02-28T00:57:17;-1.42;76.42
71047;SHT31;58703;48.978;8.982;2023-02-28T00:59:42;-1.40;76.63
71047;SHT31;58703;48.978;8.982;2023-02-28T01:02:08;-1.44;76.75
71047;SHT31;58703;48.978;8.982;2023-02-28T01:04:33;-1.46;76.65
71047;SHT31;58703;48.978;8.982;2023-02-28T01:06:59;-1.37;76.66
71047;SHT31;58703;48.978;8.982;2023-02-28T01:09:25;-1.50;77.17
71047;SHT31;58703;48.978;8.982;2023-02-28T01:11:50;-1.53;77.39
71047;SHT31;58703;48.978;8.982;2023-02-28T01:14:17;-1.46;77.05
71047;SHT31;58703;48.978;8.982;2023-02-28T01:16:43;-1.54;77.39
71047;SHT31;58703;48.978;8.982;2023-02-28T01:19:09;-1.60;77.72
71047;SHT31;58703;48.978;8.982;2023-02-28T01:21:34;-1.54;77.61
71047;SHT31;58703;48.978;8.982;2023-02-28T01:24:00;-1.60;77.83
71047;SHT31;58703;48.978;8.982;2023-02-28T01:26:25;-1.63;78.03
71047;SHT31;58703;48.978;8.982;2023-02-28T01:28:52;-1.63;78.10
71047;SHT31;58703;48.978;8.982;2023-02-28T01:31:19;-1.61;78.37
71047;SHT31;58703;48.978;8.982;2023-02-28T01:33:45;-1.60;78.10
71047;SHT31;58703;48.978;8.982;2023-02-28T01:36:16;-1.57;78.15
71047;SHT31;58703;48.978;8.982;2023-02-28T01:38:42;-1.58;78.14
71047;SHT31;58703;48.978;8.982;2023-02-28T01:41:08;-1.68;78.53
71047;SHT31;58703;48.978;8.982;2023-02-28T01:46:09;-1.66;78.66
71047;SHT31;58703;48.978;8.982;2023-02-28T01:48:38;-1.77;79.03
71047;SHT31;58703;48.978;8.982;2023-02-28T01:51:10;-1.78;79.13
71047;SHT31;58703;48.978;8.982;2023-02-28T01:53:41;-1.81;79.35
71047;SHT31;58703;48.978;8.982;2023-02-28T01:56:10;-1.71;79.16
71047;SHT31;58703;48.978;8.982;2023-02-28T01:58:37;-1.66;78.95
71047;SHT31;58703;48.978;8.982;2023-02-28T02:01:03;-1.72;79.18
71047;SHT31;58703;48.978;8.982;2023-02-28T02:03:30;-1.74;79.39
71047;SHT31;58703;48.978;8.982;2023-02-28T02:05:56;-1.72;79.42
71047;SHT31;58703;48.978;8.982;2023-02-28T02:08:26;-1.81;79.60
71047;SHT31;58703;48.978;8.982;2023-02-28T02:11:01;-1.97;80.29
71047;SHT31;58703;48.978;8.982;2023-02-28T02:16:28;-1.84;80.28
71047;SHT31;58703;48.978;8.982;2023-02-28T02:27:36;-1.84;80.21
71047;SHT31;58703;48.978;8.982;2023-02-28T02:38:52;-1.84;80.34
71047;SHT31;58703;48.978;8.982;2023-02-28T02:41:28;-1.72;80.23
71047;SHT31;58703;48.978;8.982;2023-02-28T02:46:34;-1.78;80.35
71047;SHT31;58703;48.978;8.982;2023-02-28T02:49:05;-1.80;80.34
71047;SHT31;58703;48.978;8.982;2023-02-28T02:51:32;-1.75;80.29
71047;SHT31;58703;48.978;8.982;2023-02-28T02:54:08;-1.70;80.23
71047;SHT31;58703;48.978;8.982;2023-02-28T02:56:39;-1.75;80.41
71047;SHT31;58703;48.978;8.982;2023-02-28T02:59:09;-1.67;80.16
71047;SHT31;58703;48.978;8.982;2023-02-28T03:01:37;-1.66;80.14
71047;SHT31;58703;48.978;8.982;2023-02-28T03:04:07;-1.57;79.83
71047;SHT31;58703;48.978;8.982;2023-02-28T03:06:33;-1.58;79.83
71047;SHT31;58703;48.978;8.982;2023-02-28T03:08:59;-1.61;80.06
71047;SHT31;58703;48.978;8.982;2023-02-28T03:11:25;-1.58;79.85
71047;SHT31;58703;48.978;8.982;2023-02-28T03:14:23;-1.58;79.90
71047;SHT31;58703;48.978;8.982;2023-02-28T03:16:57;-1.60;79.83
71047;SHT31;58703;48.978;8.982;2023-02-28T03:19:40;-1.64;80.10
71047;SHT31;58703;48.978;8.982;2023-02-28T03:35:39;-1.58;80.03
71047;SHT31;58703;48.978;8.982;2023-02-28T03:38:11;-1.63;80.06
71047;SHT31;58703;48.978;8.982;2023-02-28T03:40:42;-1.54;79.66
71047;SHT31;58703;48.978;8.982;2023-02-28T03:43:13;-1.58;79.94
71047;SHT31;58703;48.978;8.982;2023-02-28T03:45:41;-1.60;79.95
71047;SHT31;58703;48.978;8.982;2023-02-28T03:48:15;-1.66;80.21
71047;SHT31;58703;48.978;8.982;2023-02-28T03:50:48;-1.60;79.97
71047;SHT31;58703;48.978;8.982;2023-02-28T03:53:33;-1.63;80.03
71047;SHT31;58703;48.978;8.982;2023-02-28T03:56:11;-1.61;79.91
71047;SHT31;58703;48.978;8.982;2023-02-28T04:01:46;-1.64;80.08
71047;SHT31;58703;48.978;8.982;2023-02-28T04:04:13;-1.67;80.29
71047;SHT31;58703;48.978;8.982;2023-02-28T04:06:40;-1.64;80.28
71047;SHT31;58703;48.978;8.982;2023-02-28T04:09:07;-1.66;80.33
71047;SHT31;58703;48.978;8.982;2023-02-28T04:11:49;-1.68;80.30
71047;SHT31;58703;48.978;8.982;2023-02-28T04:14:17;-1.61;80.01
71047;SHT31;58703;48.978;8.982;2023-02-28T04:16:43;-1.68;80.25
71047;SHT31;58703;48.978;8.982;2023-02-28T04:19:10;-1.66;80.23
71047;SHT31;58703;48.978;8.982;2023-02-28T04:21:44;-1.63;80.32
71047;SHT31;58703;48.978;8.982;2023-02-28T04:24:12;-1.66;80.43
71047;SHT31;58703;48.978;8.982;2023-02-28T04:26:44;-1.64;80.25
71047;SHT31;58703;48.978;8.982;2023-02-28T04:29:11;-1.66;80.42
71047;SHT31;58703;48.978;8.982;2023-02-28T04:31:39;-1.64;80.52
71047;SHT31;58703;48.978;8.982;2023-02-28T04:34:05;-1.64;80.65
71047;SHT31;58703;48.978;8.982;2023-02-28T04:36:31;-1.61;80.61
71047;SHT31;58703;48.978;8.982;2023-02-28T04:38:56;-1.58;80.14
71047;SHT31;58703;48.978;8.982;2023-02-28T04:41:23;-1.57;80.27
71047;SHT31;58703;48.978;8.982;2023-02-28T04:43:50;-1.54;80.35
71047;SHT31;58703;48.978;8.982;2023-02-28T04:46:16;-1.56;80.11
71047;SHT31;58703;48.978;8.982;2023-02-28T04:48:42;-1.53;80.10
71047;SHT31;58703;48.978;8.982;2023-02-28T04:51:11;-1.51;80.20
71047;SHT31;58703;48.978;8.982;2023-02-28T04:53:37;-1.50;80.04
71047;SHT31;58703;48.978;8.982;2023-02-28T04:56:04;-1.51;79.90
71047;SHT31;58703;48.978;8.982;2023-02-28T04:58:31;-1.50;80.01
71047;SHT31;58703;48.978;8.982;2023-02-28T05:01:06;-1.46;79.90
71047;SHT31;58703;48.978;8.982;2023-02-28T05:03:39;-1.44;80.05
71047;SHT31;58703;48.978;8.982;2023-02-28T05:06:06;-1.46;79.90
71047;SHT31;58703;48.978;8.982;2023-02-28T05:08:32;-1.47;79.95
71047;SHT31;58703;48.978;8.982;2023-02-28T05:10:58;-1.46;80.24
71047;SHT31;58703;48.978;8.982;2023-02-28T05:13:26;-1.43;80.06
71047;SHT31;58703;48.978;8.982;2023-02-28T05:15:52;-1.47;80.25
71047;SHT31;58703;48.978;8.982;2023-02-28T05:18:18;-1.47;80.16
71047;SHT31;58703;48.978;8.982;2023-02-28T05:20:44;-1.44;80.28
71047;SHT31;58703;48.978;8.982;2023-02-28T05:23:13;-1.40;79.75
71047;SHT31;58703;48.978;8.982;2023-02-28T05:25:40;-1.39;79.88
71047;SHT31;58703;48.978;8.982;2023-02-28T05:28:07;-1.39;79.56
71047;SHT31;58703;48.978;8.982;2023-02-28T05:30:33;-1.35;79.49
71047;SHT31;58703;48.978;8.982;2023-02-28T05:32:59;-1.35;79.46
71047;SHT31;58703;48.978;8.982;2023-02-28T05:35:25;-1.36;79.45
71047;SHT31;58703;48.978;8.982;2023-02-28T05:37:51;-1.37;79.35
71047;SHT31;58703;48.978;8.982;2023-02-28T05:40:17;-1.33;79.35
71047;SHT31;58703;48.978;8.982;2023-02-28T05:42:44;-1.32;79.27
71047;SHT31;58703;48.978;8.982;2023-02-28T05:45:10;-1.27;79.01
71047;SHT31;58703;48.978;8.982;2023-02-28T05:47:36;-1.29;78.97
71047;SHT31;58703;48.978;8.982;2023-02-28T05:50:02;-1.27;79.02
71047;SHT31;58703;48.978;8.982;2023-02-28T05:52:28;-1.29;78.97
71047;SHT31;58703;48.978;8.982;2023-02-28T05:54:55;-1.32;79.11
71047;SHT31;58703;48.978;8.982;2023-02-28T05:57:21;-1.29;78.95
71047;SHT31;58703;48.978;8.982;2023-02-28T05:59:46;-1.30;78.96
71047;SHT31;58703;48.978;8.982;2023-02-28T06:02:14;-1.29;79.29
71047;SHT31;58703;48.978;8.982;2023-02-28T06:04:40;-1.27;79.31
71047;SHT31;58703;48.978;8.982;2023-02-28T06:07:06;-1.26;79.19
71047;SHT31;58703;48.978;8.982;2023-02-28T06:09:32;-1.26;79.08
71047;SHT31;58703;48.978;8.982;2023-02-28T06:11:59;-1.27;79.02
71047;SHT31;58703;48.978;8.982;2023-02-28T06:14:25;-1.26;78.88
71047;SHT31;58703;48.978;8.982;2023-02-28T06:16:51;-1.26;79.20
71047;SHT31;58703;48.978;8.982;2023-02-28T06:19:16;-1.27;79.09
71047;SHT31;58703;48.978;8.982;2023-02-28T06:21:42;-1.25;79.16
71047;SHT31;58703;48.978;8.982;2023-02-28T06:24:08;-1.25;79.08
71047;SHT31;58703;48.978;8.982;2023-02-28T06:26:34;-1.25;79.04
71047;SHT31;58703;48.978;8.982;2023-02-28T06:29:00;-1.27;78.87
71047;SHT31;58703;48.978;8.982;2023-02-28T06:31:26;-1.26;78.84
71047;SHT31;58703;48.978;8.982;2023-02-28T06:33:54;-1.26;78.95
71047;SHT31;58703;48.978;8.982;2023-02-28T06:36:20;-1.26;79.16
71047;SHT31;58703;48.978;8.982;2023-02-28T06:38:46;-1.21;79.04
71047;SHT31;58703;48.978;8.982;2023-02-28T06:41:17;-1.25;78.93
71047;SHT31;58703;48.978;8.982;2023-02-28T06:43:43;-1.23;79.04
71047;SHT31;58703;48.978;8.982;2023-02-28T06:46:11;-1.26;79.06
71047;SHT31;58703;48.978;8.982;2023-02-28T06:48:39;-1.25;79.18
71047;SHT31;58703;48.978;8.982;2023-02-28T06:51:10;-1.26;79.12
71047;SHT31;58703;48.978;8.982;2023-02-28T06:53:36;-1.25;78.88
71047;SHT31;58703;48.978;8.982;2023-02-28T06:56:10;-1.21;79.04
71047;SHT31;58703;48.978;8.982;2023-02-28T06:58:36;-1.23;79.01
71047;SHT31;58703;48.978;8.982;2023-02-28T07:01:03;-1.21;79.05
71047;SHT31;58703;48.978;8.982;2023-02-28T07:03:30;-1.21;78.93
71047;SHT31;58703;48.978;8.982;2023-02-28T07:05:56;-1.20;79.02
71047;SHT31;58703;48.978;8.982;2023-02-28T07:08:23;-1.17;79.02
71047;SHT31;58703;48.978;8.982;2023-02-28T07:10:54;-1.21;78.75
71047;SHT31;58703;48.978;8.982;2023-02-28T07:13:21;-1.20;78.99
71047;SHT31;58703;48.978;8.982;2023-02-28T07:16:02;-1.19;78.81
71047;SHT31;58703;48.978;8.982;2023-02-28T07:18:28;-1.21;78.74
71047;SHT31;58703;48.978;8.982;2023-02-28T07:20:53;-1.21;78.83
71047;SHT31;58703;48.978;8.982;2023-02-28T07:23:19;-1.15;78.81
71047;SHT31;58703;48.978;8.982;2023-02-28T07:25:45;-1.10;78.61
71047;SHT31;58703;48.978;8.982;2023-02-28T07:28:12;-1.15;78.66
71047;SHT31;58703;48.978;8.982;2023-02-28T07:30:37;-1.09;78.56
71047;SHT31;58703;48.978;8.982;2023-02-28T07:33:03;-1.05;78.62
71047;SHT31;58703;48.978;8.982;2023-02-28T07:35:29;-1.05;78.48
71047;SHT31;58703;48.978;8.982;2023-02-28T07:37:57;-0.97;78.16
71047;SHT31;58703;48.978;8.982;2023-02-28T07:40:23;-0.95;77.97
71047;SHT31;58703;48.978;8.982;2023-02-28T07:42:48;-0.79;78.04
71047;SHT31;58703;48.978;8.982;2023-02-28T07:45:14;-0.92;77.81
71047;SHT31;58703;48.978;8.982;2023-02-28T07:47:41;-0.81;77.76
71047;SHT31;58703;48.978;8.982;2023-02-28T07:50:09;-0.85;77.50
71047;SHT31;58703;48.978;8.982;2023-02-28T07:52:36;-0.75;76.90
71047;SHT31;58703;48.978;8.982;2023-02-28T07:55:02;-0.69;76.81
71047;SHT31;58703;48.978;8.982;2023-02-28T07:57:28;-0.75;76.56
71047;SHT31;58703;48.978;8.982;2023-02-28T07:59:53;-0.54;76.75
71047;SHT31;58703;48.978;8.982;2023-02-28T08:02:19;-0.60;76.88
71047;SHT31;58703;48.978;8.982;2023-02-28T08:04:45;-0.60;77.11
71047;SHT31;58703;48.978;8.982;2023-02-28T08:07:12;-0.64;77.19
71047;SHT31;58703;48.978;8.982;2023-02-28T08:09:39;-0.48;76.98
71047;SHT31;58703;48.978;8.982;2023-02-28T08:12:06;-0.55;76.48
71047;SHT31;58703;48.978;8.982;2023-02-28T08:14:33;-0.47;76.65
71047;SHT31;58703;48.978;8.982;2023-02-28T08:16:58;-0.57;76.71
71047;SHT31;58703;48.978;8.982;2023-02-28T08:19:24;-0.38;76.23
71047;SHT31;58703;48.978;8.982;2023-02-28T08:21:49;-0.41;76.52
71047;SHT31;58703;48.978;8.982;2023-02-28T08:24:15;-0.33;76.28
71047;SHT31;58703;48.978;8.982;2023-02-28T08:26:40;-0.33;76.33
71047;SHT31;58703;48.978;8.982;2023-02-28T08:29:06;-0.24;75.82
71047;SHT31;58703;48.978;8.982;2023-02-28T08:31:31;-0.40;75.93
71047;SHT31;58703;48.978;8.982;2023-02-28T08:33:57;-0.24;76.53
71047;SHT31;58703;48.978;8.982;2023-02-28T08:36:25;-0.14;75.91
71047;SHT31;58703;48.978;8.982;2023-02-28T08:38:51;-0.18;75.63
71047;SHT31;58703;48.978;8.982;2023-02-28T08:41:17;-0.11;75.70
71047;SHT31;58703;48.978;8.982;2023-02-28T08:43:42;-0.13;75.37
71047;SHT31;58703;48.978;8.982;2023-02-28T08:46:11;-0.09;75.61
71047;SHT31;58703;48.978;8.982;2023-02-28T08:48:37;-0.03;75.30
71047;SHT31;58703;48.978;8.982;2023-02-28T08:51:08;-0.15;75.62
71047;SHT31;58703;48.978;8.982;2023-02-28T08:53:35;0.00;75.29
71047;SHT31;58703;48.978;8.982;2023-02-28T08:56:07;-0.04;75.44
71047;SHT31;58703;48.978;8.982;2023-02-28T08:58:33;0.18;74.75
71047;SHT31;58703;48.978;8.982;2023-02-28T09:00:59;0.32;74.51
71047;SHT31;58703;48.978;8.982;2023-02-28T09:03:26;0.47;73.82
71047;SHT31;58703;48.978;8.982;2023-02-28T09:06:00;0.57;73.69
71047;SHT31;58703;48.978;8.982;2023-02-28T09:08:27;0.58;73.59
71047;SHT31;58703;48.978;8.982;2023-02-28T09:10:53;0.45;73.26
71047;SHT31;58703;48.978;8.982;2023-02-28T09:13:21;0.55;73.45
71047;SHT31;58703;48.978;8.982;2023-02-28T09:15:47;0.75;73.13
71047;SHT31;58703;48.978;8.982;2023-02-28T09:18:12;0.68;73.09
71047;SHT31;58703;48.978;8.982;2023-02-28T09:20:39;0.89;72.41
71047;SHT31;58703;48.978;8.982;2023-02-28T09:23:06;1.09;71.98
71047;SHT31;58703;48.978;8.982;2023-02-28T09:25:32;1.16;71.47
71047;SHT31;58703;48.978;8.982;2023-02-28T09:27:57;1.13;71.41
71047;SHT31;58703;48.978;8.982;2023-02-28T09:30:23;1.17;70.99
71047;SHT31;58703;48.978;8.982;2023-02-28T09:32:48;1.36;69.63
71047;SHT31;58703;48.978;8.982;2023-02-28T09:35:24;1.57;69.56
71047;SHT31;58703;48.978;8.982;2023-02-28T09:37:51;1.82;69.53
71047;SHT31;58703;48.978;8.982;2023-02-28T09:40:21;1.57;67.43
71047;SHT31;58703;48.978;8.982;2023-02-28T09:42:49;1.56;67.89
71047;SHT31;58703;48.978;8.982;2023-02-28T09:45:23;1.75;67.32
71047;SHT31;58703;48.978;8.982;2023-02-28T09:47:51;1.70;66.89
71047;SHT31;58703;48.978;8.982;2023-02-28T09:53:06;1.63;67.37
71047;SHT31;58703;48.978;8.982;2023-02-28T09:55:49;1.65;67.22
71047;SHT31;58703;48.978;8.982;2023-02-28T09:58:26;1.71;67.12
71047;SHT31;58703;48.978;8.982;2023-02-28T10:01:04;1.58;66.91
71047;SHT31;58703;48.978;8.982;2023-02-28T10:06:22;1.58;66.86
71047;SHT31;58703;48.978;8.982;2023-02-28T10:11:17;1.78;66.46
71047;SHT31;58703;48.978;8.982;2023-02-28T10:13:51;1.95;65.94
71047;SHT31;58703;48.978;8.982;2023-02-28T10:16:39;1.98;65.79
71047;SHT31;58703;48.978;8.982;2023-02-28T10:19:15;2.32;65.89
71047;SHT31;58703;48.978;8.982;2023-02-28T10:21:50;2.48;65.35
71047;SHT31;58703;48.978;8.982;2023-02-28T10:24:31;2.54;65.56
71047;SHT31;58703;48.978;8.982;2023-02-28T10:27:12;2.61;64.74
71047;SHT31;58703;48.978;8.982;2023-02-28T10:29:40;2.53;64.52
71047;SHT31;58703;48.978;8.982;2023-02-28T10:32:08;2.52;64.54
71047;SHT31;58703;48.978;8.982;2023-02-28T10:34:35;2.45;64.71
71047;SHT31;58703;48.978;8.982;2023-02-28T10:37:03;2.99;63.89
71047;SHT31;58703;48.978;8.982;2023-02-28T10:39:37;3.22;63.53
71047;SHT31;58703;48.978;8.982;2023-02-28T10:42:03;2.86;62.88
71047;SHT31;58703;48.978;8.982;2023-02-28T10:44:29;2.67;63.21
71047;SHT31;58703;48.978;8.982;2023-02-28T10:46:55;2.61;63.28
71047;SHT31;58703;48.978;8.982;2023-02-28T10:49:28;2.54;63.70
71047;SHT31;58703;48.978;8.982;2023-02-28T10:51:57;2.63;63.94
71047;SHT31;58703;48.978;8.982;2023-02-28T10:54:43;2.70;63.83
71047;SHT31;58703;48.978;8.982;2023-02-28T10:57:22;2.46;64.89
71047;SHT31;58703;48.978;8.982;2023-02-28T11:00:08;2.60;64.01
71047;SHT31;58703;48.978;8.982;2023-02-28T11:02:37;2.73;63.68
71047;SHT31;58703;48.978;8.982;2023-02-28T11:05:24;2.89;63.94
71047;SHT31;58703;48.978;8.982;2023-02-28T11:08:14;2.69;64.28
71047;SHT31;58703;48.978;8.982;2023-02-28T11:10:44;2.90;63.73
71047;SHT31;58703;48.978;8.982;2023-02-28T11:13:19;3.20;62.49
71047;SHT31;58703;48.978;8.982;2023-02-28T11:15:52;2.87;63.02
71047;SHT31;58703;48.978;8.982;2023-02-28T11:18:27;3.11;62.62
71047;SHT31;58703;48.978;8.982;2023-02-28T11:20:56;3.05;62.22
71047;SHT31;58703;48.978;8.982;2023-02-28T11:23:25;3.03;62.27
71047;SHT31;58703;48.978;8.982;2023-02-28T11:25:54;3.28;61.85
71047;SHT31;58703;48.978;8.982;2023-02-28T11:28:29;3.50;61.05
71047;SHT31;58703;48.978;8.982;2023-02-28T11:31:26;3.44;60.95
71047;SHT31;58703;48.978;8.982;2023-02-28T11:33:55;3.65;60.49
71047;SHT31;58703;48.978;8.982;2023-02-28T11:36:22;3.69;60.70
71047;SHT31;58703;48.978;8.982;2023-02-28T11:38:53;3.36;60.42
71047;SHT31;58703;48.978;8.982;2023-02-28T11:41:29;3.31;60.90
71047;SHT31;58703;48.978;8.982;2023-02-28T11:44:28;3.20;61.25
71047;SHT31;58703;48.978;8.982;2023-02-28T11:47:04;3.51;61.06
71047;SHT31;58703;48.978;8.982;2023-02-28T11:49:34;3.59;60.97
71047;SHT31;58703;48.978;8.982;2023-02-28T11:52:40;3.25;60.93
71047;SHT31;58703;48.978;8.982;2023-02-28T11:58:07;3.87;60.07
71047;SHT31;58703;48.978;8.982;2023-02-28T12:03:27;3.92;60.32
71047;SHT31;58703;48.978;8.982;2023-02-28T12:16:45;4.75;57.02
71047;SHT31;58703;48.978;8.982;2023-02-28T12:27:40;4.74;57.58
71047;SHT31;58703;48.978;8.982;2023-02-28T12:30:17;5.07;57.22
71047;SHT31;58703;48.978;8.982;2023-02-28T12:32:48;4.95;57.77
71047;SHT31;58703;48.978;8.982;2023-02-28T12:35:32;5.22;57.23
71047;SHT31;58703;48.978;8.982;2023-02-28T12:38:05;5.28;56.80
71047;SHT31;58703;48.978;8.982;2023-02-28T12:40:57;4.68;58.18
71047;SHT31;58703;48.978;8.982;2023-02-28T12:43:31;4.65;57.80
71047;SHT31;58703;48.978;8.982;2023-02-28T12:46:02;4.95;58.22
71047;SHT31;58703;48.978;8.982;2023-02-28T12:48:37;5.52;56.68
71047;SHT31;58703;48.978;8.982;2023-02-28T12:51:06;5.46;56.43
71047;SHT31;58703;48.978;8.982;2023-02-28T12:54:14;5.25;56.67
71047;SHT31;58703;48.978;8.982;2023-02-28T13:02:09;5.19;56.98
71047;SHT31;58703;48.978;8.982;2023-02-28T13:05:33;5.49;57.25
71047;SHT31;58703;48.978;8.982;2023-02-28T13:08:07;4.77;57.96
71047;SHT31;58703;48.978;8.982;2023-02-28T13:10:46;5.15;57.75
71047;SHT31;58703;48.978;8.982;2023-02-28T13:13:21;5.07;57.28
71047;SHT31;58703;48.978;8.982;2023-02-28T13:18:45;5.59;55.94
71047;SHT31;58703;48.978;8.982;2023-02-28T13:21:29;5.86;55.13
71047;SHT31;58703;48.978;8.982;2023-02-28T13:23:57;6.00;55.54
71047;SHT31;58703;48.978;8.982;2023-02-28T13:29:21;5.22;56.77
71047;SHT31;58703;48.978;8.982;2023-02-28T13:34:38;5.13;57.60
71047;SHT31;58703;48.978;8.982;2023-02-28T13:39:48;4.96;58.18
71047;SHT31;58703;48.978;8.982;2023-02-28T13:42:35;5.64;56.14
71047;SHT31;58703;48.978;8.982;2023-02-28T13:58:49;5.84;55.90
71047;SHT31;58703;48.978;8.982;2023-02-28T14:01:42;5.40;57.22
71047;SHT31;58703;48.978;8.982;2023-02-28T14:06:56;6.50;54.71
71047;SHT31;58703;48.978;8.982;2023-02-28T14:09:32;5.97;55.43
71047;SHT31;58703;48.978;8.982;2023-02-28T14:15:34;6.14;56.10
71047;SHT31;58703;48.978;8.982;2023-02-28T14:18:05;6.18;54.76
71047;SHT31;58703;48.978;8.982;2023-02-28T14:20:32;6.29;55.02
71047;SHT31;58703;48.978;8.982;2023-02-28T14:23:13;6.44;55.03
71047;SHT31;58703;48.978;8.982;2023-02-28T14:25:59;5.83;54.70
71047;SHT31;58703;48.978;8.982;2023-02-28T14:29:14;6.15;54.57
71047;SHT31;58703;48.978;8.982;2023-02-28T14:31:43;6.82;54.05
71047;SHT31;58703;48.978;8.982;2023-02-28T14:34:31;6.64;54.42
71047;SHT31;58703;48.978;8.982;2023-02-28T14:37:02;6.52;54.48
71047;SHT31;58703;48.978;8.982;2023-02-28T14:39:29;6.83;54.28
71047;SHT31;58703;48.978;8.982;2023-02-28T14:41:57;7.20;53.38
71047;SHT31;58703;48.978;8.982;2023-02-28T14:44:28;6.34;54.99
71047;SHT31;58703;48.978;8.982;2023-02-28T14:47:01;6.52;53.75
71047;SHT31;58703;48.978;8.982;2023-02-28T14:49:44;6.44;54.28
71047;SHT31;58703;48.978;8.982;2023-02-28T14:52:22;6.13;55.24
71047;SHT31;58703;48.978;8.982;2023-02-28T14:54:54;6.24;54.79
71047;SHT31;58703;48.978;8.982;2023-02-28T15:00:00;7.17;53.20
71047;SHT31;58703;48.978;8.982;2023-02-28T15:02:31;6.61;54.05
71047;SHT31;58703;48.978;8.982;2023-02-28T15:05:47;6.24;54.69
71047;SHT31;58703;48.978;8.982;2023-02-28T15:07:47;6.26;54.87
71047;SHT31;58703;48.978;8.982;2023-02-28T15:10:26;6.50;54.69
71047;SHT31;58703;48.978;8.982;2023-02-28T15:13:02;6.86;54.19
71047;SHT31;58703;48.978;8.982;2023-02-28T15:18:05;6.55;53.89
71047;SHT31;58703;48.978;8.982;2023-02-28T15:20:33;6.22;54.13
71047;SHT31;58703;48.978;8.982;2023-02-28T15:22:59;6.52;54.16
71047;SHT31;58703;48.978;8.982;2023-02-28T15:25:25;6.76;53.44
71047;SHT31;58703;48.978;8.982;2023-02-28T15:27:55;7.13;52.74
71047;SHT31;58703;48.978;8.982;2023-02-28T15:30:27;6.99;52.88
71047;SHT31;58703;48.978;8.982;2023-02-28T15:33:18;6.57;54.05
71047;SHT31;58703;48.978;8.982;2023-02-28T15:35:44;6.35;54.63
71047;SHT31;58703;48.978;8.982;2023-02-28T15:38:22;6.68;54.13
71047;SHT31;58703;48.978;8.982;2023-02-28T15:40:53;6.56;54.71
71047;SHT31;58703;48.978;8.982;2023-02-28T15:46:11;5.73;55.99
71047;SHT31;58703;48.978;8.982;2023-02-28T15:48:54;5.50;57.07
71047;SHT31;58703;48.978;8.982;2023-02-28T15:51:33;5.78;56.80
71047;SHT31;58703;48.978;8.982;2023-02-28T15:54:08;6.05;55.62
71047;SHT31;58703;48.978;8.982;2023-02-28T15:59:18;5.86;56.01
71047;SHT31;58703;48.978;8.982;2023-02-28T16:01:45;5.60;56.50
71047;SHT31;58703;48.978;8.982;2023-02-28T16:04:19;5.60;56.81
71047;SHT31;58703;48.978;8.982;2023-02-28T16:07:02;5.30;57.79
71047;SHT31;58703;48.978;8.982;2023-02-28T16:09:28;5.12;58.10
71047;SHT31;58703;48.978;8.982;2023-02-28T16:12:01;5.20;58.36
71047;SHT31;58703;48.978;8.982;2023-02-28T16:14:28;5.30;57.93
71047;SHT31;58703;48.978;8.982;2023-02-28T16:17:03;5.15;58.21
71047;SHT31;58703;48.978;8.982;2023-02-28T16:19:30;5.23;58.70
71047;SHT31;58703;48.978;8.982;2023-02-28T16:21:56;5.12;58.59
71047;SHT31;58703;48.978;8.982;2023-02-28T16:24:22;4.87;58.86
71047;SHT31;58703;48.978;8.982;2023-02-28T16:26:48;4.54;59.58
71047;SHT31;58703;48.978;8.982;2023-02-28T16:29:24;4.51;59.87
71047;SHT31;58703;48.978;8.982;2023-02-28T16:31:51;4.17;60.72
71047;SHT31;58703;48.978;8.982;2023-02-28T16:34:18;4.10;61.31
71047;SHT31;58703;48.978;8.982;2023-02-28T16:36:46;3.96;61.24
71047;SHT31;58703;48.978;8.982;2023-02-28T16:39:12;3.92;61.75
71047;SHT31;58703;48.978;8.982;2023-02-28T16:41:44;3.83;61.81
71047;SHT31;58703;48.978;8.982;2023-02-28T16:44:14;3.78;62.12
71047;SHT31;58703;48.978;8.982;2023-02-28T16:46:46;3.72;62.24
71047;SHT31;58703;48.978;8.982;2023-02-28T16:49:11;3.63;62.49
71047;SHT31;58703;48.978;8.982;2023-02-28T16:51:38;3.59;62.80
71047;SHT31;58703;48.978;8.982;2023-02-28T16:54:04;3.50;63.01
71047;SHT31;58703;48.978;8.982;2023-02-28T16:56:30;3.41;63.10
71047;SHT31;58703;48.978;8.982;2023-02-28T16:58:59;3.35;63.55
71047;SHT31;58703;48.978;8.982;2023-02-28T17:01:26;3.24;63.89
71047;SHT31;58703;48.978;8.982;2023-02-28T17:03:52;3.14;64.12
71047;SHT31;58703;48.978;8.982;2023-02-28T17:06:25;3.10;64.06
71047;SHT31;58703;48.978;8.982;2023-02-28T17:08:51;3.03;64.16
71047;SHT31;58703;48.978;8.982;2023-02-28T17:11:18;2.99;64.38
71047;SHT31;58703;48.978;8.982;2023-02-28T17:13:44;2.91;64.65
71047;SHT31;58703;48.978;8.982;2023-02-28T17:16:25;2.94;64.58
71047;SHT31;58703;48.978;8.982;2023-02-28T17:18:54;2.84;64.67
71047;SHT31;58703;48.978;8.982;2023-02-28T17:21:20;2.90;64.41
71047;SHT31;58703;48.978;8.982;2023-02-28T17:23:45;2.80;64.80
71047;SHT31;58703;48.978;8.982;2023-02-28T17:26:15;2.77;64.69
71047;SHT31;58703;48.978;8.982;2023-02-28T17:28:43;2.72;65.10
71047;SHT31;58703;48.978;8.982;2023-02-28T17:31:09;2.77;64.72
71047;SHT31;58703;48.978;8.982;2023-02-28T17:33:35;2.66;65.07
71047;SHT31;58703;48.978;8.982;2023-02-28T17:36:01;2.66;65.22
71047;SHT31;58703;48.978;8.982;2023-02-28T17:38:26;2.59;65.29
71047;SHT31;58703;48.978;8.982;2023-02-28T17:40:52;2.52;65.50
71047;SHT31;58703;48.978;8.982;2023-02-28T17:43:26;2.45;65.69
71047;SHT31;58703;48.978;8.982;2023-02-28T17:45:52;2.40;65.99
71047;SHT31;58703;48.978;8.982;2023-02-28T17:48:17;2.30;66.23
71047;SHT31;58703;48.978;8.982;2023-02-28T17:50:43;2.32;66.43
71047;SHT31;58703;48.978;8.982;2023-02-28T17:53:08;2.22;66.92
71047;SHT31;58703;48.978;8.982;2023-02-28T17:55:35;2.15;67.44
71047;SHT31;58703;48.978;8.982;2023-02-28T17:58:01;2.17;67.74